TimeMST,TemperatureF,Dew PointF,Humidity,Sea Level PressureIn,VisibilityMPH,Wind Direction,Wind SpeedMPH,Gust SpeedMPH,PrecipitationIn,Events,Conditions,WindDirDegrees,DateUTC
12:53 AM,1.0,-2.9,83,30.57,10.0,Calm,Calm,-,N/A,,Clear,0,2013-01-02 07:53:00
1:53 AM,-2.9,-6.0,87,30.59,10.0,NNW,6.9,-,N/A,,Clear,330,2013-01-02 08:53:00
2:53 AM,-2.9,-7.1,82,30.60,10.0,NW,3.5,-,N/A,,Clear,320,2013-01-02 09:53:00
3:53 AM,-6.0,-9.0,87,30.60,8.0,Calm,Calm,-,N/A,,Clear,0,2013-01-02 10:53:00
4:00 AM,-2.2,-7.6,78,30.33,1.8,Calm,Calm,-,N/A,,Partly Cloudy,0,2013-01-02 11:00:00
4:05 AM,-4.0,-5.8,92,30.33,0.8,Calm,Calm,-,N/A,,Mist,0,2013-01-02 11:05:00
4:20 AM,-9.4,-13.0,84,30.33,2.0,Calm,Calm,-,N/A,,Mostly Cloudy,0,2013-01-02 11:20:00
4:29 AM,-9.4,-14.8,77,30.32,10.0,West,4.6,-,N/A,,Mostly Cloudy,260,2013-01-02 11:29:00
4:39 AM,-9.4,-13.0,84,30.32,10.0,West,5.8,-,N/A,,Scattered Clouds,260,2013-01-02 11:39:00
4:53 AM,-5.1,-9.9,80,30.58,10.0,West,4.6,-,N/A,,Clear,260,2013-01-02 11:53:00
5:53 AM,-7.1,-9.9,87,30.60,5.0,Calm,Calm,-,N/A,,Clear,0,2013-01-02 12:53:00
6:01 AM,-7.6,-9.4,92,30.31,1.8,Calm,Calm,-,N/A,,Partly Cloudy,0,2013-01-02 13:01:00
6:12 AM,-11.2,-14.8,84,30.31,3.0,Calm,Calm,-,N/A,,Mostly Cloudy,0,2013-01-02 13:12:00
6:15 AM,-9.4,-14.8,77,30.32,1.8,Calm,Calm,-,N/A,,Mostly Cloudy,0,2013-01-02 13:15:00
6:27 AM,-7.6,-9.4,92,30.31,0.8,Calm,Calm,-,N/A,,Mist,0,2013-01-02 13:27:00
6:46 AM,-11.2,-14.8,84,30.32,2.0,Calm,Calm,-,N/A,,Overcast,0,2013-01-02 13:46:00
6:53 AM,-9.9,-13.0,86,30.64,10.0,Calm,Calm,-,N/A,,Overcast,0,2013-01-02 13:53:00
7:01 AM,-7.6,-11.2,84,30.32,1.8,Calm,Calm,-,N/A,,Overcast,0,2013-01-02 14:01:00
7:10 AM,-11.2,-14.8,84,30.33,0.5,Calm,Calm,-,N/A,Fog,Light Freezing Fog,0,2013-01-02 14:10:00
7:40 AM,-7.6,-11.2,84,30.33,2.0,WSW,3.5,-,N/A,,Overcast,250,2013-01-02 14:40:00
7:48 AM,-7.6,-11.2,84,30.34,5.0,Calm,Calm,-,N/A,,Overcast,0,2013-01-02 14:48:00
7:53 AM,-8.0,-11.0,86,30.67,7.0,Calm,Calm,-,N/A,,Overcast,0,2013-01-02 14:53:00
8:05 AM,-9.4,-11.2,92,30.34,2.0,Calm,Calm,-,N/A,,Overcast,0,2013-01-02 15:05:00
8:15 AM,-9.4,-13.0,84,30.34,3.0,NE,3.5,-,N/A,,Overcast,50,2013-01-02 15:15:00
8:30 AM,-9.4,-11.2,92,30.34,1.8,Calm,Calm,-,N/A,,Overcast,0,2013-01-02 15:30:00
8:39 AM,-9.4,-11.2,92,30.34,0.2,Calm,Calm,-,N/A,Fog,Light Freezing Fog,0,2013-01-02 15:39:00
8:53 AM,-9.0,-9.0,100,30.65,0.2,Calm,Calm,-,N/A,Fog,Light Freezing Fog,0,2013-01-02 15:53:00
9:53 AM,-0.9,-2.0,95,30.65,1.0,NW,6.9,-,N/A,,Overcast,310,2013-01-02 16:53:00
9:58 AM,-0.4,-2.2,92,30.36,3.0,NW,6.9,-,N/A,,Overcast,320,2013-01-02 16:58:00
10:53 AM,-0.9,-2.0,95,30.65,9.0,Variable,4.6,-,N/A,,Scattered Clouds,0,2013-01-02 17:53:00
11:53 AM,1.9,1.0,96,30.60,10.0,Calm,Calm,-,N/A,,Clear,0,2013-01-02 18:53:00
12:53 PM,5.0,3.0,92,30.56,10.0,Calm,Calm,-,N/A,,Clear,0,2013-01-02 19:53:00
1:53 PM,8.1,1.9,76,30.53,10.0,NNW,10.4,-,N/A,,Clear,340,2013-01-02 20:53:00
2:53 PM,8.1,3.0,80,30.53,10.0,NNW,10.4,-,N/A,,Clear,330,2013-01-02 21:53:00
3:53 PM,7.0,1.9,80,30.55,10.0,NW,6.9,-,N/A,,Clear,320,2013-01-02 22:53:00
4:53 PM,3.9,-0.0,84,30.56,10.0,NW,3.5,-,N/A,,Clear,320,2013-01-02 23:53:00
5:53 PM,1.9,-0.0,91,30.59,10.0,Calm,Calm,-,N/A,,Clear,0,2013-01-03 00:53:00
6:53 PM,-2.0,-4.0,91,30.63,10.0,NNW,9.2,-,N/A,,Clear,330,2013-01-03 01:53:00
7:53 PM,-0.9,-2.9,91,30.63,10.0,Variable,3.5,-,N/A,,Clear,0,2013-01-03 02:53:00
8:53 PM,-2.9,-4.0,95,30.66,9.0,Calm,Calm,-,N/A,,Clear,0,2013-01-03 03:53:00
9:53 PM,-6.0,-7.1,95,30.65,10.0,West,3.5,-,N/A,,Clear,270,2013-01-03 04:53:00
10:53 PM,-9.0,-11.9,87,30.66,10.0,Calm,Calm,-,N/A,,Clear,0,2013-01-03 05:53:00
11:53 PM,-6.0,-8.0,91,30.66,7.0,WNW,3.5,-,N/A,,Clear,290,2013-01-03 06:53:00